Aviation Digital Data Service (ADDS)

Output produced by METARs form (0243 UTC 24 July 2017)
found at http://www.aviationweather.gov/adds/metars/
 
EIME 240200Z 25004KT 9999 FEW015 12/11 Q1018
TAF EIME 240200Z 2403/2412 30007KT 9999 FEW040 
     PROB40 
     TEMPO 2405/2407 4000 BR BKN004
       
EIKN 232130Z 34007KT 9999 FEW017 13/13 Q1019 NOSIG
TAF EIKN 232300Z 2400/2424 33008KT 9999 FEW040 
     PROB40 
     TEMPO 2403/2407 0800 FG BKN002
       
EICK 240230Z 31013KT 9999 FEW022 14/12 Q1020 NOSIG
TAF EICK 232300Z 2400/2424 30006KT 9999 SCT025 
     BECMG 2406/2408 33012KT
       
EIDW 240230Z 29006KT 9999 FEW025 13/12 Q1017 NOSIG
TAF EIDW 232300Z 2400/2424 32008KT 9999 SCT040 
     PROB40 
     TEMPO 2404/2407 5000 BR BKN005
       
EINN 240230Z 23003KT 5000 BR FEW002 13/12 Q1020 BECMG 3000
TAF EINN 232300Z 2400/2424 31010KT 9999 SCT030 
     TEMPO 2402/2407 3000 BR BKN005 
     BECMG 2420/2422 27005KT
       
TAF EISG 240200Z 2403/2412 33010KT 9999 SCT007 SCT050 
     TEMPO 2403/2408 4000 BR BKN006
       
TAF EIWF 240200Z 2403/2412 35005KT 9999 SCT040 
     BECMG 2406/2408 33012KT